Time;durP1;ratioP1;P1;durP2;ratioP2;P2;SDS_P1;SDS_P2;PMS_P1;PMS_P2;Temp;Humidity;BMP_temperature;BMP_pressure;BME280_temperature;BME280_humidity;BME280_pressure;Samples;Min_cycle;Max_cycle;Signal;HPM_P1;HPM_P2
2023/10/25 00:02:34;;;;;;;15.90;7.43;;;8.10;35.20;;;;;;5010524;28;20419;-83
2023/10/25 00:05:32;;;;;;;18.17;6.70;;;8.10;32.70;;;;;;5008416;28;20524;-84
2023/10/25 00:08:46;;;;;;;14.23;5.93;;;8.10;40.40;;;;;;5007177;28;20899;-84
2023/10/25 00:15:01;;;;;;;16.50;6.83;;;8.10;33.30;;;;;;4995339;28;20416;-84
2023/10/25 00:17:55;;;;;;;9.73;5.07;;;8.10;33.40;;;;;;4998099;28;20788;-84
2023/10/25 00:20:20;;;;;;;25.33;7.70;;;8.10;38.00;;;;;;5001367;28;20810;-84
2023/10/25 00:22:47;;;;;;;15.70;7.00;;;8.20;41.30;;;;;;4998767;28;20443;-84
2023/10/25 00:25:29;;;;;;;17.97;6.60;;;8.20;37.40;;;;;;5001839;28;20637;-83
2023/10/25 00:27:59;;;;;;;17.00;6.67;;;8.20;40.20;;;;;;5016734;28;20420;-84
2023/10/25 00:30:35;;;;;;;13.50;6.40;;;8.30;31.00;;;;;;5016168;28;20950;-84
2023/10/25 00:33:05;;;;;;;13.23;6.57;;;8.30;29.90;;;;;;5005498;28;20914;-74
2023/10/25 00:35:30;;;;;;;17.20;5.60;;;8.30;33.90;;;;;;4996710;28;20455;-74
2023/10/25 00:37:56;;;;;;;18.40;6.30;;;8.40;31.80;;;;;;4994121;28;20441;-74
2023/10/25 00:40:22;;;;;;;11.90;6.70;;;8.40;35.10;;;;;;4994354;28;20178;-74
2023/10/25 00:42:47;;;;;;;17.00;6.60;;;8.90;35.00;;;;;;4987257;28;20256;-74
2023/10/25 00:45:13;;;;;;;12.00;7.30;;;8.40;34.30;;;;;;4993979;28;20264;-74
2023/10/25 00:51:13;;;;;;;13.47;6.83;;;8.50;38.40;;;;;;4999245;28;20983;-84
2023/10/25 00:57:00;;;;;;;17.80;7.27;;;8.60;41.90;;;;;;5008685;28;20974;-84
2023/10/25 00:59:27;;;;;;;16.33;7.27;;;8.60;41.50;;;;;;4981008;28;20513;-84
2023/10/25 01:01:53;;;;;;;17.73;8.47;;;8.60;38.50;;;;;;4985445;28;20244;-83
2023/10/25 01:07:41;;;;;;;23.77;10.90;;;8.70;41.80;;;;;;5000393;28;20793;-83
2023/10/25 01:13:47;;;;;;;43.30;13.27;;;8.90;41.90;;;;;;4993792;28;20184;-84
2023/10/25 01:22:56;;;;;;;30.60;8.90;;;9.10;42.20;;;;;;4989750;28;20371;-84
2023/10/25 01:32:06;;;;;;;36.43;9.20;;;9.30;42.20;;;;;;5004181;28;20915;-84
2023/10/25 01:34:52;;;;;;;37.40;8.93;;;9.30;42.20;;;;;;5002869;28;20431;-84
2023/10/25 01:40:40;;;;;;;35.90;10.30;;;9.50;39.10;;;;;;5010229;28;20435;-83
2023/10/25 01:53:11;;;;;;;31.87;9.50;;;9.60;42.40;;;;;;5004133;28;20416;-83
2023/10/25 01:55:58;;;;;;;21.27;9.90;;;9.70;42.40;;;;;;5017125;28;20443;-84
2023/10/25 01:59:16;;;;;;;21.37;9.43;;;9.70;38.60;;;;;;5008963;28;20174;-84
2023/10/25 02:05:04;;;;;;;24.07;9.30;;;9.70;39.20;;;;;;5002681;28;20443;-74
2023/10/25 02:07:30;;;;;;;33.90;9.57;;;9.70;36.20;;;;;;5002159;28;20471;-74
2023/10/25 02:09:56;;;;;;;33.23;10.33;;;9.80;30.00;;;;;;4998797;28;20467;-74
2023/10/25 02:12:21;;;;;;;23.20;9.57;;;10.00;32.50;;;;;;4996360;28;20260;-74
2023/10/25 02:14:47;;;;;;;25.93;9.10;;;10.00;36.00;;;;;;4995329;28;20197;-74
2023/10/25 02:17:13;;;;;;;26.00;8.80;;;9.70;35.10;;;;;;4991984;28;20285;-74
2023/10/25 02:20:34;;;;;;;23.47;8.90;;;9.80;38.40;;;;;;5001954;28;20210;-84
2023/10/25 02:29:44;;;;;;;22.50;8.33;;;9.70;27.80;;;;;;4994397;28;20958;-83
2023/10/25 02:32:35;;;;;;;22.77;9.00;;;9.80;29.60;;;;;;5010973;28;20432;-84
2023/10/25 02:35:01;;;;;;;18.50;8.40;;;9.70;27.60;;;;;;4998801;28;20197;-74
2023/10/25 02:37:26;;;;;;;24.23;9.80;;;9.70;28.60;;;;;;4992416;28;20430;-74
2023/10/25 02:39:52;;;;;;;21.27;9.40;;;9.70;28.40;;;;;;4995619;28;20174;-74
2023/10/25 02:42:23;;;;;;;35.63;10.33;;;9.70;30.70;;;;;;4992244;28;20174;-74
2023/10/25 02:44:49;;;;;;;21.27;9.77;;;9.70;26.90;;;;;;4993994;28;20185;-74
2023/10/25 02:47:14;;;;;;;27.60;10.43;;;9.70;26.10;;;;;;4993497;28;20472;-74
2023/10/25 02:50:22;;;;;;;24.43;10.27;;;9.70;28.70;;;;;;4995530;28;20533;-84
2023/10/25 02:52:53;;;;;;;35.90;10.77;;;9.70;28.80;;;;;;5000073;28;20177;-84
2023/10/25 03:02:04;;;;;;;22.33;9.90;;;9.70;24.60;;;;;;4991634;28;20462;-84
2023/10/25 03:07:51;;;;;;;29.53;10.20;;;9.70;27.60;;;;;;4976482;28;20413;-84
2023/10/25 03:10:17;;;;;;;37.43;9.83;;;9.70;28.10;;;;;;4977403;28;20402;-84
2023/10/25 03:16:05;;;;;;;79.73;11.07;;;9.60;28.50;;;;;;4995707;28;20276;-84
2023/10/25 03:18:43;;;;;;;53.97;11.23;;;9.80;31.60;;;;;;4995400;28;20441;-84
2023/10/25 03:21:08;;;;;;;49.60;11.17;;;9.80;36.50;;;;;;5004415;28;20556;-74
2023/10/25 03:23:34;;;;;;;47.53;10.97;;;9.80;35.40;;;;;;5003300;28;20930;-74
2023/10/25 03:26:05;;;;;;;31.70;10.90;;;9.80;40.90;;;;;;5005555;28;20184;-74
2023/10/25 03:28:30;;;;;;;25.50;10.47;;;9.80;36.60;;;;;;5015110;28;20421;-74
2023/10/25 03:30:56;;;;;;;39.90;10.50;;;9.90;30.00;;;;;;5015072;28;20478;-74
2023/10/25 03:33:22;;;;;;;49.17;10.93;;;9.90;29.90;;;;;;5000704;28;20208;-74
2023/10/25 03:43:16;;;;;;;67.27;10.93;;;10.00;28.90;;;;;;4993054;28;20519;-83
2023/10/25 03:49:04;;;;;;;49.50;11.20;;;10.10;28.50;;;;;;4995682;28;20445;-84
2023/10/25 03:52:11;;;;;;;45.03;10.87;;;10.10;30.80;;;;;;4995262;28;20387;-84
2023/10/25 03:57:58;;;;;;;47.43;11.67;;;10.10;31.60;;;;;;4997113;28;20395;-84
2023/10/25 04:00:56;;;;;;;98.63;12.30;;;10.20;31.60;;;;;;5002214;28;20425;-84
2023/10/25 04:03:59;;;;;;;98.00;11.37;;;10.20;30.40;;;;;;5001082;28;20266;-84
2023/10/25 04:06:24;;;;;;;84.40;12.30;;;10.20;26.90;;;;;;4995288;28;20475;-74
2023/10/25 04:08:50;;;;;;;110.53;11.73;;;10.20;28.10;;;;;;4995195;28;20425;-74
2023/10/25 04:11:16;;;;;;;58.37;10.43;;;10.20;27.70;;;;;;4994876;28;20640;-74
2023/10/25 04:13:41;;;;;;;71.17;10.60;;;10.20;26.30;;;;;;4999238;28;20424;-74
2023/10/25 04:16:09;;;;;;;73.87;11.43;;;10.30;23.80;;;;;;5006106;28;20213;-74
2023/10/25 04:18:35;;;;;;;80.77;10.83;;;10.30;23.10;;;;;;4998185;28;20181;-74
2023/10/25 04:21:02;;;;;;;89.03;11.00;;;10.30;21.70;;;;;;4994180;28;20431;-84
2023/10/25 04:26:49;;;;;;;98.93;10.90;;;10.30;18.20;;;;;;4994501;28;20705;-84
2023/10/25 04:29:23;;;;;;;62.30;9.33;;;10.30;16.50;;;;;;4992470;28;23311;-84
2023/10/25 04:31:53;;;;;;;36.23;10.13;;;10.30;17.80;;;;;;4992756;28;20268;-84
2023/10/25 04:34:23;;;;;;;29.77;9.70;;;10.30;19.00;;;;;;4994641;28;20400;-74
2023/10/25 04:36:49;;;;;;;53.07;10.47;;;10.40;19.60;;;;;;4996311;28;21095;-74
2023/10/25 04:39:14;;;;;;;37.03;9.23;;;10.40;19.40;;;;;;4998149;28;20509;-74
2023/10/25 04:41:40;;;;;;;50.50;10.40;;;10.40;18.60;;;;;;4996535;28;20190;-74
2023/10/25 04:44:06;;;;;;;43.63;10.20;;;10.40;17.20;;;;;;4992415;28;20628;-74
2023/10/25 04:46:35;;;;;;;23.00;9.17;;;10.40;19.90;;;;;;5003983;28;20454;-74
2023/10/25 04:49:01;;;;;;;36.93;8.73;;;10.40;21.10;;;;;;4992323;28;20761;-74
2023/10/25 04:51:26;;;;;;;80.60;10.30;;;10.30;19.00;;;;;;4996024;28;20488;-74
2023/10/25 04:54:05;;;;;;;50.07;9.40;;;10.40;16.60;;;;;;5002855;28;20184;-74
2023/10/25 04:56:31;;;;;;;31.30;9.70;;;10.40;15.40;;;;;;5010248;28;20561;-74
2023/10/25 04:58:56;;;;;;;21.57;8.80;;;10.40;15.60;;;;;;4997768;28;20431;-74
2023/10/25 05:01:22;;;;;;;31.23;9.67;;;10.40;18.10;;;;;;4999209;28;20178;-74
2023/10/25 05:03:48;;;;;;;38.07;9.73;;;10.70;21.00;;;;;;4999896;28;20213;-74
2023/10/25 05:06:14;;;;;;;23.80;9.83;;;10.40;17.90;;;;;;5003168;28;20228;-74
2023/10/25 05:08:40;;;;;;;33.70;9.90;;;10.40;17.40;;;;;;4998792;28;20567;-74
2023/10/25 05:11:07;;;;;;;19.53;8.57;;;10.40;18.00;;;;;;4992288;28;20980;-74
2023/10/25 05:13:33;;;;;;;44.73;9.00;;;10.40;20.90;;;;;;4997905;28;20434;-75
2023/10/25 05:15:59;;;;;;;34.40;9.03;;;10.40;17.10;;;;;;4994318;28;20480;-74
2023/10/25 05:18:26;;;;;;;30.03;9.63;;;10.40;19.50;;;;;;5003778;28;20533;-74
2023/10/25 05:21:01;;;;;;;28.43;9.07;;;10.50;17.70;;;;;;4993910;28;20428;-74
2023/10/25 05:26:55;;;;;;;33.87;8.60;;;10.40;17.10;;;;;;4998080;28;20392;-84
2023/10/25 05:29:21;;;;;;;49.47;8.80;;;10.40;11.80;;;;;;4982315;28;20418;-83
2023/10/25 05:35:09;;;;;;;46.10;8.80;;;10.30;12.00;;;;;;4974590;28;20444;-83
2023/10/25 05:37:47;;;;;;;15.70;8.30;;;10.30;14.30;;;;;;5003462;28;20442;-83
2023/10/25 05:40:53;;;;;;;58.87;10.67;;;10.30;11.50;;;;;;4989111;28;20456;-83
2023/10/25 05:46:42;;;;;;;51.10;7.57;;;10.30;9.00;;;;;;4990077;28;20439;-83
2023/10/25 05:49:47;;;;;;;31.33;7.70;;;10.30;14.90;;;;;;4998258;28;20420;-84
2023/10/25 05:52:13;;;;;;;32.00;9.03;;;10.10;12.60;;;;;;4991434;28;20436;-74
2023/10/25 05:54:39;;;;;;;29.03;8.00;;;10.00;14.80;;;;;;4988948;28;20420;-74
2023/10/25 05:57:05;;;;;;;22.67;8.53;;;10.00;16.70;;;;;;4992587;28;20499;-75
2023/10/25 05:59:31;;;;;;;46.80;8.43;;;10.10;16.50;;;;;;4993025;28;20424;-76
2023/10/25 06:02:14;;;;;;;25.93;8.50;;;10.10;12.90;;;;;;4992502;28;20439;-73
2023/10/25 06:04:41;;;;;;;17.77;8.10;;;10.20;10.40;;;;;;4996443;28;20979;-75
2023/10/25 06:07:09;;;;;;;20.53;7.73;;;10.20;9.80;;;;;;5009761;28;20413;-74
2023/10/25 06:09:37;;;;;;;45.57;8.00;;;10.20;9.00;;;;;;4996863;28;20415;-75
2023/10/25 06:12:03;;;;;;;46.37;8.90;;;10.20;7.40;;;;;;4996264;28;20431;-74
2023/10/25 06:14:29;;;;;;;17.07;8.27;;;10.20;9.80;;;;;;4996450;28;20418;-75
2023/10/25 06:16:56;;;;;;;46.03;8.67;;;10.20;10.20;;;;;;4995733;28;20455;-74
2023/10/25 06:19:22;;;;;;;20.47;7.90;;;10.20;13.70;;;;;;4994330;28;20452;-74
2023/10/25 06:21:48;;;;;;;17.63;8.20;;;10.30;11.10;;;;;;5005064;28;20478;-84
2023/10/25 06:27:47;;;;;;;22.50;8.40;;;10.30;13.50;;;;;;4991759;28;21517;-84
2023/10/25 06:30:47;;;;;;;21.20;8.50;;;10.30;16.10;;;;;;4996167;28;20932;-84
2023/10/25 06:33:30;;;;;;;25.77;8.90;;;10.40;14.20;;;;;;5005632;28;20415;-84
2023/10/25 06:36:00;;;;;;;23.17;8.40;;;10.50;12.80;;;;;;5003034;28;20458;-75
2023/10/25 06:38:26;;;;;;;20.40;8.63;;;10.40;14.70;;;;;;5001742;28;20794;-74
2023/10/25 06:40:52;;;;;;;19.20;8.90;;;10.50;13.60;;;;;;4991790;28;20524;-74
2023/10/25 06:43:18;;;;;;;20.67;9.33;;;10.50;13.20;;;;;;4994857;28;20594;-74
2023/10/25 06:45:47;;;;;;;18.20;9.47;;;10.60;10.30;;;;;;4994428;28;20428;-74
2023/10/25 06:48:13;;;;;;;16.43;8.37;;;10.60;12.90;;;;;;4996121;28;20413;-74
2023/10/25 06:50:39;;;;;;;16.93;8.47;;;10.70;12.00;;;;;;4994873;28;20413;-75
2023/10/25 06:53:05;;;;;;;15.40;7.97;;;10.70;12.90;;;;;;4997130;28;20415;-74
2023/10/25 06:55:31;;;;;;;11.87;7.43;;;10.80;7.50;;;;;;4995286;28;20456;-74
2023/10/25 06:57:57;;;;;;;13.70;7.50;;;10.80;10.00;;;;;;4995972;28;20759;-74
2023/10/25 07:00:23;;;;;;;12.03;7.07;;;10.80;11.50;;;;;;5013395;28;20636;-74
2023/10/25 07:02:53;;;;;;;13.90;7.20;;;10.80;12.10;;;;;;5008551;28;20415;-74
2023/10/25 07:05:25;;;;;;;10.73;6.63;;;10.90;9.50;;;;;;5012791;28;20490;-75
2023/10/25 07:07:52;;;;;;;11.50;7.40;;;10.90;3.70;;;;;;5013644;28;20412;-74
2023/10/25 07:10:19;;;;;;;12.53;7.27;;;11.00;2.80;;;;;;5015391;28;20491;-74
2023/10/25 07:12:45;;;;;;;13.40;7.03;;;11.00;6.40;;;;;;5013315;28;20421;-74
2023/10/25 07:15:11;;;;;;;9.60;6.77;;;11.10;3.60;;;;;;4995616;28;20512;-74
2023/10/25 07:17:38;;;;;;;9.50;5.50;;;11.00;1.00;;;;;;4996017;28;20445;-74
2023/10/25 07:20:06;;;;;;;13.23;5.80;;;11.00;1.00;;;;;;4983106;28;20498;-75
2023/10/25 07:22:53;;;;;;;9.47;6.07;;;11.00;1.00;;;;;;4997626;28;20409;-84
2023/10/25 07:25:23;;;;;;;7.23;5.10;;;11.00;1.00;;;;;;4998456;28;20777;-84
2023/10/25 07:27:53;;;;;;;10.03;5.63;;;11.00;1.00;;;;;;4995488;28;20862;-84
2023/10/25 07:33:40;;;;;;;15.57;5.00;;;10.90;1.00;;;;;;5006986;28;20769;-84
2023/10/25 07:36:46;;;;;;;11.97;5.30;;;11.00;1.00;;;;;;5015341;28;20451;-83
2023/10/25 07:39:29;;;;;;;9.30;5.37;;;11.10;1.00;;;;;;4975834;28;20246;-84
2023/10/25 07:42:01;;;;;;;8.17;5.33;;;11.20;1.00;;;;;;4989355;28;20423;-83
2023/10/25 07:44:53;;;;;;;13.00;5.60;;;11.10;1.00;;;;;;4984347;28;20795;-84
2023/10/25 07:47:59;;;;;;;8.37;5.73;;;11.20;1.00;;;;;;4993304;28;20433;-84
2023/10/25 07:50:30;;;;;;;8.00;5.50;;;11.30;1.00;;;;;;4996390;28;20431;-84
2023/10/25 07:52:55;;;;;;;8.80;5.63;;;11.30;1.00;;;;;;5004364;28;20423;-74
2023/10/25 07:55:21;;;;;;;8.23;5.20;;;11.30;1.00;;;;;;4994926;28;20452;-75
2023/10/25 07:57:47;;;;;;;11.57;6.10;;;11.30;1.00;;;;;;5003989;28;20199;-74
2023/10/25 08:00:13;;;;;;;9.80;6.00;;;11.40;1.00;;;;;;5011243;28;20180;-74
2023/10/25 08:02:39;;;;;;;12.10;6.20;;;11.50;1.00;;;;;;5004089;28;20255;-74
2023/10/25 08:05:05;;;;;;;11.90;6.67;;;11.70;1.00;;;;;;5009607;28;20461;-75
2023/10/25 08:07:42;;;;;;;10.27;5.90;;;11.80;1.00;;;;;;4987213;28;20182;-74
2023/10/25 08:10:08;;;;;;;12.30;6.67;;;11.80;1.00;;;;;;4998815;28;20431;-75
2023/10/25 08:12:35;;;;;;;16.03;6.70;;;11.70;1.00;;;;;;4991023;28;20476;-74
2023/10/25 08:15:01;;;;;;;8.80;6.50;;;11.70;1.00;;;;;;4992100;28;20456;-75
2023/10/25 08:17:27;;;;;;;9.80;6.23;;;11.60;1.00;;;;;;4994158;28;20433;-75
2023/10/25 08:19:53;;;;;;;9.90;6.10;;;11.70;1.00;;;;;;4994666;28;20417;-75
2023/10/25 08:22:18;;;;;;;9.50;5.97;;;11.80;1.00;;;;;;5005751;28;20165;-75
2023/10/25 08:24:45;;;;;;;9.90;6.17;;;11.80;1.00;;;;;;4992256;28;20238;-75
2023/10/25 08:27:10;;;;;;;7.93;5.80;;;11.80;1.00;;;;;;5001524;28;20196;-75
2023/10/25 08:29:47;;;;;;;15.63;6.37;;;11.80;1.00;;;;;;5011585;28;20907;-78
2023/10/25 08:32:17;;;;;;;8.10;5.77;;;11.90;1.00;;;;;;5011134;28;20176;-75
2023/10/25 08:34:45;;;;;;;7.90;5.83;;;12.00;1.00;;;;;;4993054;28;20456;-75
2023/10/25 08:37:11;;;;;;;9.73;5.73;;;12.10;1.00;;;;;;5007704;28;20420;-84
2023/10/25 08:39:53;;;;;;;8.70;6.50;;;12.00;1.00;;;;;;5011317;28;20367;-83
2023/10/25 08:42:19;;;;;;;11.60;6.40;;;12.20;1.00;;;;;;4993421;28;20425;-83
2023/10/25 08:44:46;;;;;;;11.80;6.80;;;12.30;1.00;;;;;;5000763;28;20422;-84
2023/10/25 08:47:12;;;;;;;9.77;6.20;;;12.20;1.00;;;;;;5008169;28;20173;-84
2023/10/25 08:53:06;;;;;;;7.50;5.47;;;12.30;1.00;;;;;;5000939;28;20227;-84
2023/10/25 08:55:31;;;;;;;8.43;6.13;;;12.30;1.00;;;;;;4996537;28;20464;-84
2023/10/25 08:58:29;;;;;;;10.87;6.30;;;12.40;1.00;;;;;;4986334;28;20496;-84
2023/10/25 09:01:24;;;;;;;7.43;5.70;;;12.50;1.00;;;;;;5000566;28;20169;-83
2023/10/25 09:03:50;;;;;;;14.10;6.83;;;12.60;1.00;;;;;;5006833;28;20447;-84
2023/10/25 09:06:24;;;;;;;10.37;5.70;;;12.80;1.00;;;;;;5007653;28;20990;-84
2023/10/25 09:09:06;;;;;;;11.03;6.87;;;13.00;1.00;;;;;;4985819;28;20676;-85
2023/10/25 09:11:59;;;;;;;9.53;6.03;;;13.20;1.00;;;;;;4985816;28;20413;-84
2023/10/25 09:15:01;;;;;;;18.43;6.37;;;13.50;1.00;;;;;;4987649;28;20411;-83
2023/10/25 09:20:49;;;;;;;13.13;5.50;;;13.90;1.00;;;;;;4988319;28;20946;-74
2023/10/25 09:23:16;;;;;;;6.50;5.40;;;13.90;1.00;;;;;;4992284;28;20475;-74
2023/10/25 09:25:43;;;;;;;9.83;5.90;;;14.00;1.00;;;;;;4990391;28;20498;-73
2023/10/25 09:28:32;;;;;;;8.10;5.77;;;14.00;1.00;;;;;;4994227;28;20412;-73
2023/10/25 09:31:00;;;;;;;11.13;6.37;;;14.00;1.00;;;;;;4990007;28;20391;-73
2023/10/25 09:33:30;;;;;;;13.23;7.13;;;14.00;1.00;;;;;;4996409;28;20441;-73
2023/10/25 09:35:57;;;;;;;8.23;6.03;;;14.10;1.00;;;;;;4995099;28;20836;-73
2023/10/25 09:42:25;;;;;;;9.67;6.50;;;14.20;1.00;;;;;;4998729;28;20421;-82
2023/10/25 09:52:05;;;;;;;9.97;5.90;;;14.30;1.00;;;;;;5000539;28;20438;-82
2023/10/25 09:54:33;;;;;;;10.30;7.07;;;14.30;1.00;;;;;;4984362;28;20403;-73
2023/10/25 09:57:02;;;;;;;9.27;6.13;;;14.40;1.00;;;;;;4998719;28;20464;-73
2023/10/25 09:59:32;;;;;;;7.90;5.70;;;14.40;1.00;;;;;;4996590;28;20507;-73
2023/10/25 10:02:00;;;;;;;10.27;5.37;;;14.40;1.00;;;;;;5009714;28;20921;-73
2023/10/25 10:04:55;;;;;;;8.00;5.50;;;14.30;1.00;;;;;;5004982;28;20439;-73
2023/10/25 10:08:01;;;;;;;8.03;5.63;;;14.20;1.00;;;;;;5005009;28;20390;-72
2023/10/25 10:10:57;;;;;;;11.23;5.97;;;14.10;1.00;;;;;;4974657;28;20893;-73
2023/10/25 10:13:23;;;;;;;10.03;5.97;;;14.10;1.00;;;;;;4983068;28;20943;-73
2023/10/25 10:16:08;;;;;;;11.47;6.33;;;14.10;1.00;;;;;;4974971;28;20477;-73
2023/10/25 10:18:34;;;;;;;8.80;5.67;;;14.00;1.00;;;;;;4967140;28;20828;-72
2023/10/25 10:21:05;;;;;;;7.60;5.37;;;14.00;1.00;;;;;;4974985;28;20412;-73
2023/10/25 10:24:23;;;;;;;9.30;6.27;;;14.00;1.00;;;;;;4979201;28;20408;-82
2023/10/25 10:27:27;;;;;;;14.20;6.57;;;14.00;1.00;;;;;;4973820;28;20400;-82
2023/10/25 10:30:29;;;;;;;7.97;5.77;;;14.00;1.00;;;;;;4968473;28;20538;-82
2023/10/25 10:33:12;;;;;;;10.03;5.60;;;14.00;1.00;;;;;;4974267;28;20488;-82
2023/10/25 10:36:11;;;;;;;9.90;6.83;;;14.00;1.00;;;;;;4975051;28;20440;-82
2023/10/25 10:39:24;;;;;;;10.90;6.27;;;14.00;1.00;;;;;;4975689;28;20897;-82
2023/10/25 10:42:00;;;;;;;10.60;6.13;;;14.00;1.00;;;;;;4974706;28;20404;-83
2023/10/25 10:44:33;;;;;;;9.90;5.90;;;14.00;1.00;;;;;;4962434;28;20393;-82
2023/10/25 10:47:08;;;;;;;13.57;6.20;;;14.00;1.00;;;;;;4986528;28;20436;-82
2023/10/25 10:49:44;;;;;;;8.80;5.90;;;13.90;1.00;;;;;;5004657;28;20419;-82
2023/10/25 10:52:10;;;;;;;12.07;6.63;;;14.00;1.00;;;;;;5000492;28;20386;-82
2023/10/25 10:54:41;;;;;;;13.90;7.90;;;14.00;1.00;;;;;;4989989;28;20418;-72
2023/10/25 10:57:07;;;;;;;13.33;6.50;;;14.00;1.00;;;;;;4987889;28;20198;-72
2023/10/25 10:59:35;;;;;;;11.50;6.27;;;14.00;1.00;;;;;;4995935;28;20423;-73
2023/10/25 11:02:01;;;;;;;10.57;6.70;;;14.10;1.00;;;;;;4995969;28;20189;-73
2023/10/25 11:04:27;;;;;;;8.90;6.20;;;14.10;1.00;;;;;;4996070;28;20415;-72
2023/10/25 11:06:52;;;;;;;11.50;6.10;;;14.10;1.00;;;;;;4996117;28;20193;-73
2023/10/25 11:09:18;;;;;;;15.90;6.63;;;14.10;1.00;;;;;;4989766;28;20174;-73
2023/10/25 11:11:44;;;;;;;10.87;6.30;;;14.10;1.00;;;;;;4997754;28;20211;-72
2023/10/25 11:14:11;;;;;;;14.03;5.67;;;14.20;1.00;;;;;;5007383;28;20177;-73
2023/10/25 11:16:41;;;;;;;9.53;5.33;;;14.30;1.00;;;;;;5001653;28;20480;-72
2023/10/25 11:19:11;;;;;;;8.90;6.00;;;14.10;1.00;;;;;;4998061;28;20905;-73
2023/10/25 11:21:42;;;;;;;6.00;4.70;;;14.10;1.00;;;;;;5000518;28;20456;-73
2023/10/25 11:24:37;;;;;;;7.73;5.20;;;14.20;1.00;;;;;;5009884;28;20416;-83
2023/10/25 11:27:55;;;;;;;10.13;5.90;;;14.20;1.00;;;;;;5002774;28;20919;-82
2023/10/25 11:33:47;;;;;;;6.13;3.73;;;14.00;1.00;;;;;;4990939;28;20452;-82
2023/10/25 11:36:53;;;;;;;13.60;3.33;;;13.90;1.00;;;;;;5001451;28;20462;-82
2023/10/25 11:39:55;;;;;;;3.83;3.07;;;13.80;1.00;;;;;;5002320;28;20382;-82
2023/10/25 11:42:27;;;;;;;4.23;3.30;;;13.80;1.00;;;;;;5015067;28;20412;-82
2023/10/25 11:45:23;;;;;;;5.10;3.30;;;13.80;1.00;;;;;;5007901;28;20444;-82
2023/10/25 11:48:24;;;;;;;3.13;2.90;;;13.80;1.00;;;;;;5006542;28;20423;-82
2023/10/25 11:51:24;;;;;;;5.00;2.60;;;13.80;1.00;;;;;;5002011;28;20416;-82
2023/10/25 11:53:50;;;;;;;3.30;2.90;;;13.80;1.00;;;;;;5000095;28;20419;-73
2023/10/25 11:56:15;;;;;;;4.87;3.10;;;13.80;1.00;;;;;;4977560;28;20819;-73
2023/10/25 11:58:41;;;;;;;2.73;2.43;;;13.80;1.00;;;;;;5000588;28;20185;-72
2023/10/25 12:01:07;;;;;;;4.93;2.80;;;13.90;1.00;;;;;;4994222;28;20177;-73
2023/10/25 12:03:33;;;;;;;4.87;2.93;;;13.80;1.00;;;;;;4997122;28;20687;-73
2023/10/25 12:05:59;;;;;;;3.87;2.70;;;13.90;1.00;;;;;;4997529;28;20447;-73
2023/10/25 12:08:24;;;;;;;3.60;2.53;;;13.80;1.00;;;;;;4998241;28;20522;-72
2023/10/25 12:10:50;;;;;;;3.47;2.70;;;13.80;1.00;;;;;;4996613;28;20189;-73
2023/10/25 12:13:15;;;;;;;6.23;3.07;;;13.70;1.00;;;;;;4990260;28;20188;-73
2023/10/25 12:15:41;;;;;;;5.63;2.77;;;13.70;1.00;;;;;;4991148;28;20206;-73
2023/10/25 12:18:07;;;;;;;3.93;2.60;;;13.70;1.00;;;;;;4996130;28;20215;-73
2023/10/25 12:20:33;;;;;;;4.20;3.20;;;13.70;1.00;;;;;;4990892;28;20273;-74
2023/10/25 12:22:58;;;;;;;7.40;2.60;;;13.70;1.00;;;;;;4995866;28;20181;-74
2023/10/25 12:25:24;;;;;;;5.10;2.60;;;13.70;1.00;;;;;;4994325;28;20661;-74
2023/10/25 12:27:50;;;;;;;2.80;2.60;;;13.70;1.00;;;;;;4991189;28;20183;-73
2023/10/25 12:30:16;;;;;;;4.37;2.80;;;13.60;1.00;;;;;;4994788;28;20471;-73
2023/10/25 12:32:47;;;;;;;3.40;2.80;;;13.60;1.00;;;;;;4998334;28;20209;-76
2023/10/25 12:35:17;;;;;;;4.30;3.30;;;13.60;1.00;;;;;;4995911;28;20252;-83
2023/10/25 12:37:47;;;;;;;3.37;3.10;;;13.70;1.00;;;;;;5003067;28;20394;-79
2023/10/25 12:40:13;;;;;;;8.70;3.00;;;13.60;1.00;;;;;;4994361;28;20490;-73
2023/10/25 12:42:41;;;;;;;3.40;3.00;;;13.70;1.00;;;;;;4994999;28;20408;-74
2023/10/25 12:45:11;;;;;;;6.60;3.03;;;13.80;1.00;;;;;;4994206;28;20429;-73
2023/10/25 12:47:47;;;;;;;3.37;3.03;;;13.70;1.00;;;;;;4983393;28;20738;-74
2023/10/25 12:50:13;;;;;;;4.93;3.20;;;13.80;1.00;;;;;;4996318;28;20409;-73
2023/10/25 12:52:39;;;;;;;6.00;3.90;;;13.90;1.00;;;;;;4994734;28;20411;-73
2023/10/25 12:55:53;;;;;;;11.93;6.20;;;13.80;1.00;;;;;;4978649;28;20323;-82
2023/10/25 12:58:54;;;;;;;4.67;2.60;;;13.90;1.00;;;;;;4998315;28;20188;-82
2023/10/25 13:01:23;;;;;;;2.87;2.67;;;13.80;1.00;;;;;;4986352;28;20436;-83
2023/10/25 13:03:53;;;;;;;2.77;2.57;;;13.70;1.00;;;;;;4993002;28;20770;-81
2023/10/25 13:06:32;;;;;;;2.83;2.43;;;13.70;1.00;;;;;;4993808;28;20406;-81
2023/10/25 13:09:12;;;;;;;6.93;2.70;;;13.80;1.00;;;;;;4993663;28;20482;-82
2023/10/25 13:11:37;;;;;;;10.80;2.40;;;13.70;1.00;;;;;;4995294;28;20417;-72
2023/10/25 13:14:05;;;;;;;5.90;2.00;;;13.80;1.00;;;;;;4996432;28;20410;-74
2023/10/25 13:16:31;;;;;;;3.33;2.77;;;13.70;1.00;;;;;;4996373;28;20657;-72
2023/10/25 13:19:00;;;;;;;2.43;2.33;;;13.70;1.00;;;;;;4996741;28;20502;-72
2023/10/25 13:21:26;;;;;;;1.90;1.80;;;13.70;1.00;;;;;;4995500;28;20185;-72
2023/10/25 13:23:52;;;;;;;4.53;2.43;;;13.70;1.00;;;;;;4995970;28;20425;-73
2023/10/25 13:26:19;;;;;;;2.17;1.97;;;13.70;1.00;;;;;;4994827;28;20418;-73
2023/10/25 13:28:45;;;;;;;3.00;2.10;;;13.60;1.00;;;;;;4996394;28;20431;-72
2023/10/25 13:31:10;;;;;;;2.50;2.30;;;13.70;1.00;;;;;;4995330;28;20403;-72
2023/10/25 13:33:36;;;;;;;5.80;2.00;;;13.70;1.00;;;;;;4997532;28;20433;-72
2023/10/25 13:36:02;;;;;;;3.60;2.23;;;13.70;1.00;;;;;;4996997;28;20201;-73
2023/10/25 13:38:28;;;;;;;8.17;2.63;;;13.70;1.00;;;;;;4997476;28;20447;-72
2023/10/25 13:41:23;;;;;;;5.20;2.23;;;13.60;1.00;;;;;;4996848;28;20436;-81
2023/10/25 13:43:53;;;;;;;4.00;2.30;;;13.60;2.60;;;;;;4999914;28;20217;-83
2023/10/25 13:46:53;;;;;;;2.70;2.30;;;13.70;1.20;;;;;;4998044;28;20416;-83
2023/10/25 13:49:23;;;;;;;2.93;1.90;;;13.70;4.20;;;;;;5013610;28;20407;-83
2023/10/25 13:51:53;;;;;;;4.00;2.20;;;13.70;2.70;;;;;;5003059;28;20435;-83
2023/10/25 13:54:23;;;;;;;2.27;2.07;;;13.70;5.30;;;;;;5006712;28;20440;-83
2023/10/25 13:56:53;;;;;;;2.13;2.00;;;13.90;8.70;;;;;;4995086;28;20475;-81
2023/10/25 13:59:23;;;;;;;2.63;2.20;;;13.70;5.40;;;;;;5002574;28;20422;-80
2023/10/25 14:02:23;;;;;;;2.20;2.00;;;13.70;3.90;;;;;;5002162;28;20432;-81
2023/10/25 14:04:48;;;;;;;4.50;2.07;;;13.50;5.70;;;;;;5010421;28;20449;-80
2023/10/25 14:07:23;;;;;;;4.40;2.43;;;13.60;7.40;;;;;;5006777;28;20937;-81
2023/10/25 14:09:56;;;;;;;2.23;2.00;;;13.50;9.30;;;;;;5003493;28;20673;-72
2023/10/25 14:12:23;;;;;;;2.50;2.30;;;13.50;9.30;;;;;;5005475;28;20426;-72
2023/10/25 14:14:49;;;;;;;2.40;2.27;;;13.60;13.50;;;;;;5004555;28;20934;-72
2023/10/25 14:17:15;;;;;;;2.33;2.13;;;13.80;13.40;;;;;;4999422;28;20538;-72
2023/10/25 14:19:42;;;;;;;2.10;2.00;;;13.80;12.80;;;;;;5009783;28;20259;-71
2023/10/25 14:22:07;;;;;;;2.60;2.23;;;14.00;8.90;;;;;;4998421;28;20522;-71
2023/10/25 14:24:33;;;;;;;5.23;2.43;;;14.00;7.70;;;;;;5006740;28;20436;-72
2023/10/25 14:26:59;;;;;;;3.87;2.10;;;14.10;1.10;;;;;;5002198;28;20425;-72
2023/10/25 14:29:25;;;;;;;2.93;1.90;;;14.00;3.20;;;;;;5008511;28;20189;-72
2023/10/25 14:31:50;;;;;;;5.70;1.87;;;14.00;5.20;;;;;;5001447;28;20294;-72
2023/10/25 14:34:16;;;;;;;1.70;1.57;;;13.90;2.90;;;;;;5003147;28;20210;-72
2023/10/25 14:36:43;;;;;;;6.20;2.10;;;13.90;5.80;;;;;;5001876;28;20280;-71
2023/10/25 14:39:12;;;;;;;3.37;2.00;;;13.90;2.70;;;;;;5007747;28;20398;-71
2023/10/25 14:41:39;;;;;;;2.17;2.07;;;13.90;2.40;;;;;;4998540;28;20431;-72
2023/10/25 14:44:05;;;;;;;2.43;2.00;;;13.80;4.90;;;;;;5001476;28;20423;-71
2023/10/25 14:46:31;;;;;;;3.60;2.03;;;13.90;4.20;;;;;;5005979;28;20781;-71
2023/10/25 14:48:57;;;;;;;2.93;2.00;;;13.90;6.60;;;;;;4982546;28;20419;-71
2023/10/25 14:51:26;;;;;;;1.50;1.40;;;13.90;5.70;;;;;;5001673;28;20181;-72
2023/10/25 14:53:52;;;;;;;1.67;1.57;;;13.90;7.80;;;;;;4996617;28;20193;-73
2023/10/25 14:56:19;;;;;;;4.50;1.87;;;13.80;9.40;;;;;;4986385;28;20999;-72
2023/10/25 14:58:45;;;;;;;1.70;1.43;;;13.80;12.30;;;;;;4996892;28;20452;-73
2023/10/25 15:01:22;;;;;;;1.87;1.40;;;13.80;14.80;;;;;;5001358;28;20415;-73
2023/10/25 15:03:49;;;;;;;1.83;1.73;;;13.80;17.60;;;;;;4997600;28;20327;-73
2023/10/25 15:06:17;;;;;;;2.10;2.00;;;13.80;18.00;;;;;;5000357;28;20499;-71
2023/10/25 15:08:47;;;;;;;5.50;1.73;;;13.80;19.10;;;;;;5003161;28;20915;-72
2023/10/25 15:11:13;;;;;;;2.10;2.00;;;13.80;21.50;;;;;;5004987;28;20452;-72
2023/10/25 15:13:39;;;;;;;3.20;1.60;;;13.80;22.50;;;;;;5002358;28;20467;-72
2023/10/25 15:16:05;;;;;;;2.17;2.07;;;13.80;23.30;;;;;;4999204;28;20661;-71
2023/10/25 15:18:31;;;;;;;3.17;2.03;;;13.80;24.00;;;;;;5010155;28;20213;-72
2023/10/25 15:20:57;;;;;;;3.63;1.87;;;13.70;25.00;;;;;;5011337;28;20447;-73